createdAt,value
2022-10-31T00:48:51.022Z,19.10
2022-10-31T10:43:33.837Z,8.90
2022-10-31T10:45:53.948Z,14.45
2022-10-31T10:48:01.354Z,11.65
2022-10-31T10:50:07.600Z,10.00
2022-10-31T10:54:37.664Z,12.32
2022-10-31T10:56:55.079Z,6.45
2022-10-31T10:58:58.574Z,8.43
2022-10-31T11:01:00.132Z,9.07
2022-10-31T11:03:02.099Z,13.98
2022-10-31T11:05:04.129Z,8.98
2022-10-31T11:07:07.557Z,11.43
2022-10-31T11:09:09.875Z,10.23
2022-10-31T11:11:26.329Z,9.00
2022-10-31T11:37:48.687Z,8.13
2022-10-31T11:39:54.406Z,13.93
2022-10-31T11:41:56.231Z,13.93
2022-10-31T12:06:21.813Z,9.35
2022-10-31T12:08:24.477Z,14.05
2022-10-31T12:10:32.614Z,12.95
2022-10-31T12:12:41.468Z,15.38
2022-10-31T12:15:09.357Z,7.30
2022-10-31T12:17:17.032Z,8.70
2022-10-31T12:19:18.499Z,8.90
2022-10-31T12:21:19.916Z,11.68
2022-10-31T12:23:40.084Z,6.38
2022-10-31T12:25:41.467Z,11.57
2022-10-31T12:27:55.278Z,9.80
2022-10-31T12:29:56.750Z,8.48
2022-10-31T12:32:04.920Z,8.52
2022-10-31T12:34:15.485Z,7.70
2022-10-31T12:36:17.076Z,6.05
2022-10-31T12:38:35.732Z,9.68
2022-10-31T12:40:39.692Z,5.57
2022-10-31T12:44:51.551Z,13.88
2022-10-31T12:47:06.629Z,8.35
2022-10-31T12:49:08.064Z,7.25
2022-10-31T12:51:12.242Z,4.43
2022-10-31T12:53:13.861Z,12.07
2022-10-31T12:55:22.538Z,13.82
2022-10-31T12:57:28.736Z,13.02
2022-10-31T12:59:34.687Z,7.38
2022-10-31T13:01:39.629Z,10.75
2022-10-31T13:04:00.055Z,12.32
2022-10-31T13:06:08.661Z,9.30
2022-10-31T13:08:16.396Z,5.65
2022-10-31T13:10:23.850Z,4.57
2022-10-31T13:12:30.028Z,7.35
2022-10-31T13:14:43.537Z,8.82
2022-10-31T13:16:49.918Z,4.95
2022-10-31T13:19:07.508Z,7.95
2022-10-31T13:21:36.629Z,10.48
2022-10-31T13:23:56.034Z,8.43
2022-10-31T13:26:00.751Z,7.85
2022-10-31T13:28:19.410Z,16.30
2022-10-31T13:30:26.955Z,14.20
2022-10-31T13:32:31.695Z,12.18
2022-10-31T13:34:39.961Z,9.30
2022-10-31T13:37:02.166Z,11.25
2022-10-31T13:39:20.773Z,10.63
2022-10-31T13:41:42.228Z,12.10
2022-10-31T13:43:50.935Z,12.05
2022-10-31T13:45:53.961Z,13.35
2022-10-31T13:47:56.455Z,12.60
2022-10-31T13:50:19.523Z,10.93
2022-10-31T13:52:25.565Z,6.75
2022-10-31T13:54:34.311Z,14.98
2022-10-31T13:56:36.477Z,7.57
2022-10-31T13:58:37.939Z,12.32
2022-10-31T14:00:39.472Z,5.97
2022-10-31T14:02:46.261Z,8.88
2022-10-31T14:04:49.649Z,10.75
2022-10-31T14:06:51.181Z,11.65
2022-10-31T14:08:52.992Z,6.18
2022-10-31T14:10:55.608Z,9.07
2022-10-31T14:13:08.463Z,11.05
2022-10-31T14:15:20.019Z,11.23
2022-10-31T14:17:30.759Z,8.35
2022-10-31T14:19:32.215Z,12.27
2022-10-31T14:21:41.566Z,6.47
2022-10-31T14:23:43.822Z,14.68
2022-10-31T14:25:45.344Z,4.45
2022-10-31T14:27:47.821Z,9.00
2022-10-31T14:29:50.642Z,4.55
2022-10-31T14:31:54.123Z,11.48
2022-10-31T14:33:55.700Z,10.25
2022-10-31T14:36:19.956Z,9.55
2022-10-31T14:38:29.904Z,9.27
2022-10-31T14:40:40.636Z,7.40
2022-10-31T14:42:48.447Z,9.48
2022-10-31T14:44:58.931Z,10.15
2022-10-31T14:47:10.435Z,6.03
2022-10-31T14:49:29.976Z,11.60
2022-10-31T14:51:37.471Z,7.47
2022-10-31T14:53:58.665Z,6.05
2022-10-31T14:56:04.263Z,18.17
2022-10-31T14:58:09.155Z,6.78
2022-10-31T15:00:18.471Z,7.97
2022-10-31T15:02:25.423Z,14.15
2022-10-31T15:04:29.380Z,9.30
2022-10-31T15:06:36.759Z,8.43
2022-10-31T15:08:45.549Z,11.15
2022-10-31T15:10:47.257Z,6.95
2022-10-31T15:12:48.823Z,14.82
2022-10-31T15:14:50.482Z,7.10
2022-10-31T15:16:52.432Z,9.07
2022-10-31T15:18:55.684Z,15.60
2022-10-31T15:20:57.689Z,6.13
2022-10-31T15:22:59.833Z,10.13
2022-10-31T15:25:01.653Z,9.05
2022-10-31T15:27:05.331Z,4.72
2022-10-31T15:29:12.331Z,15.57
2022-10-31T15:31:16.582Z,13.68
2022-10-31T15:33:23.355Z,22.63
2022-10-31T15:35:31.397Z,7.97
2022-10-31T15:37:32.988Z,9.48
2022-10-31T15:39:34.715Z,13.70
2022-10-31T15:41:39.322Z,4.50
2022-10-31T15:43:41.056Z,10.48
2022-10-31T15:45:43.391Z,8.60
2022-10-31T15:48:08.068Z,11.05
2022-10-31T15:50:20.399Z,6.50
2022-10-31T15:52:25.500Z,11.48
2022-10-31T15:54:27.744Z,8.38
2022-10-31T15:56:30.594Z,7.80
2022-10-31T15:58:33.625Z,12.80
2022-10-31T16:00:36.210Z,9.25
2022-10-31T16:02:37.733Z,7.88
2022-10-31T16:04:48.434Z,12.98
2022-10-31T16:07:03.825Z,6.95
2022-10-31T16:09:21.631Z,11.87
2022-10-31T16:11:25.271Z,11.80
2022-10-31T16:13:28.251Z,20.55
2022-10-31T16:15:34.994Z,14.90
2022-10-31T16:17:44.434Z,10.18
2022-10-31T16:19:58.409Z,7.97
2022-10-31T16:22:08.198Z,12.75
2022-10-31T16:24:33.872Z,12.07
2022-10-31T16:26:37.153Z,12.20
2022-10-31T16:28:39.997Z,14.10
2022-10-31T16:30:48.183Z,10.77
2022-10-31T16:32:55.149Z,12.90
2022-10-31T16:35:12.855Z,12.50
2022-10-31T16:37:15.735Z,6.13
2022-10-31T16:39:18.915Z,12.90
2022-10-31T16:41:21.476Z,12.52
2022-10-31T16:43:25.488Z,14.57
2022-10-31T16:45:32.048Z,17.40
2022-10-31T16:47:35.717Z,18.20
2022-10-31T16:49:39.128Z,24.27
2022-10-31T16:51:40.865Z,20.48
2022-10-31T16:53:46.577Z,22.55
2022-10-31T16:56:03.108Z,16.67
2022-10-31T16:58:04.656Z,19.92
2022-10-31T17:00:06.361Z,25.13
2022-10-31T17:02:11.071Z,30.55
2022-10-31T17:04:14.636Z,30.70
2022-10-31T17:06:16.317Z,22.20
2022-10-31T17:08:17.914Z,35.42
2022-10-31T17:10:20.538Z,27.08
2022-10-31T17:12:24.482Z,19.23
2022-10-31T17:14:26.427Z,26.00
2022-10-31T17:16:27.837Z,32.88
2022-10-31T17:18:29.611Z,37.85
2022-10-31T17:20:31.380Z,34.20
2022-10-31T17:22:32.844Z,33.78
2022-10-31T17:24:34.294Z,33.10
2022-10-31T17:26:35.874Z,31.45
2022-10-31T17:28:37.645Z,31.23
2022-10-31T17:30:39.559Z,27.55
2022-10-31T17:32:41.714Z,30.05
2022-10-31T17:34:43.127Z,27.90
2022-10-31T17:48:53.820Z,32.60
2022-10-31T17:50:55.480Z,28.23
2022-10-31T17:52:58.322Z,32.42
2022-10-31T17:54:59.856Z,33.05
2022-10-31T17:57:01.280Z,35.45
2022-10-31T17:59:02.974Z,25.10
2022-10-31T18:08:04.121Z,31.90
2022-10-31T19:20:55.367Z,25.90
2022-10-31T19:24:59.909Z,33.70
2022-10-31T19:27:05.991Z,32.90
2022-10-31T20:16:15.437Z,13.80
2022-10-31T20:18:17.636Z,17.75
2022-10-31T20:20:20.109Z,17.80
2022-10-31T20:22:21.626Z,16.15
2022-10-31T20:28:26.654Z,22.45
2022-10-31T20:40:38.054Z,30.40
2022-10-31T20:46:42.957Z,23.40
2022-10-31T20:48:44.539Z,26.20
2022-10-31T20:50:46.289Z,15.20
2022-10-31T20:52:47.900Z,22.40
2022-10-31T20:56:51.128Z,24.20
2022-10-31T21:21:20.230Z,23.70
2022-10-31T21:23:22.040Z,27.20
2022-10-31T21:25:23.779Z,20.48
2022-10-31T21:27:27.035Z,15.77
2022-10-31T21:29:28.871Z,22.42
2022-10-31T21:31:30.520Z,18.73
2022-10-31T21:33:32.148Z,21.92
2022-10-31T21:35:33.617Z,16.38
2022-10-31T21:37:35.110Z,26.27
2022-10-31T21:39:38.811Z,19.60
2022-10-31T21:41:40.495Z,23.25
2022-10-31T21:43:43.135Z,22.73
2022-10-31T21:45:44.983Z,16.53
2022-10-31T21:47:47.370Z,15.00
2022-10-31T21:49:49.985Z,22.65
2022-10-31T21:51:53.751Z,14.10
2022-10-31T21:56:15.398Z,15.80
2022-10-31T22:00:18.563Z,17.10
2022-10-31T22:10:25.388Z,21.10
2022-10-31T22:16:30.483Z,28.60
2022-10-31T22:18:31.991Z,28.50
2022-10-31T22:22:34.976Z,25.20
2022-10-31T23:33:17.607Z,38.42
2022-10-31T23:35:19.207Z,39.90
2022-10-31T23:37:21.938Z,39.28
2022-10-31T23:39:25.114Z,53.10
2022-10-31T23:41:26.730Z,47.45
2022-10-31T23:43:28.167Z,53.65
2022-10-31T23:45:29.788Z,48.35
2022-10-31T23:47:31.181Z,50.78
2022-10-31T23:49:32.669Z,50.63
2022-10-31T23:51:34.308Z,40.92
2022-10-31T23:55:37.539Z,47.83
2022-10-31T23:57:38.999Z,60.10
2022-10-31T23:59:40.583Z,38.05
